createdAt,value
2019-01-24T00:00:02.206Z,29.17
2019-01-24T00:02:34.967Z,27.40
2019-01-24T00:05:07.049Z,27.57
2019-01-24T00:07:38.253Z,25.90
2019-01-24T00:10:10.263Z,26.67
2019-01-24T00:12:41.336Z,28.30
2019-01-24T00:15:12.567Z,26.30
2019-01-24T00:17:43.767Z,28.67
2019-01-24T00:20:16.819Z,28.33
2019-01-24T00:22:47.923Z,28.17
2019-01-24T00:25:20.187Z,27.30
2019-01-24T00:27:51.263Z,29.50
2019-01-24T00:30:22.417Z,29.20
2019-01-24T00:32:53.520Z,28.60
2019-01-24T00:35:24.621Z,28.17
2019-01-24T00:37:55.717Z,27.50
2019-01-24T00:40:26.821Z,29.40
2019-01-24T00:42:57.971Z,29.60
2019-01-24T00:45:29.144Z,28.37
2019-01-24T00:48:00.202Z,27.37
2019-01-24T00:50:31.275Z,27.73
2019-01-24T00:53:02.395Z,27.90
2019-01-24T00:55:33.711Z,28.00
2019-01-24T00:58:04.773Z,27.93
2019-01-24T01:00:35.859Z,27.10
2019-01-24T01:03:06.951Z,26.93
2019-01-24T01:05:38.181Z,26.80
2019-01-24T01:08:28.343Z,28.20
2019-01-24T01:10:59.437Z,28.03
2019-01-24T01:13:30.558Z,27.00
2019-01-24T01:16:01.623Z,28.50
2019-01-24T01:18:32.700Z,27.93
2019-01-24T01:21:15.672Z,28.57
2019-01-24T01:23:46.817Z,27.60
2019-01-24T01:26:17.920Z,26.90
2019-01-24T01:28:48.989Z,28.27
2019-01-24T01:31:20.075Z,28.80
2019-01-24T01:33:51.162Z,28.87
2019-01-24T01:36:22.256Z,27.10
2019-01-24T01:38:53.455Z,29.07
2019-01-24T01:41:24.553Z,28.83
2019-01-24T01:43:55.671Z,28.20
2019-01-24T01:46:26.787Z,28.17
2019-01-24T01:48:57.973Z,29.07
2019-01-24T01:51:29.124Z,28.10
2019-01-24T01:54:00.285Z,28.57
2019-01-24T01:56:31.792Z,28.53
2019-01-24T01:59:02.887Z,29.20
2019-01-24T02:01:34.047Z,28.10
2019-01-24T02:04:05.385Z,29.33
2019-01-24T02:06:36.528Z,27.17
2019-01-24T02:09:10.306Z,28.47
2019-01-24T02:11:41.387Z,28.03
2019-01-24T02:14:12.539Z,28.13
2019-01-24T02:16:43.729Z,28.10
2019-01-24T02:19:14.812Z,28.93
2019-01-24T02:21:45.969Z,28.30
2019-01-24T02:24:17.065Z,28.87
2019-01-24T02:26:48.231Z,31.50
2019-01-24T02:29:19.344Z,31.20
2019-01-24T02:31:50.399Z,33.25
2019-01-24T02:34:21.561Z,31.68
2019-01-24T02:36:52.684Z,32.00
2019-01-24T02:39:23.796Z,34.25
2019-01-24T02:41:54.917Z,34.00
2019-01-24T02:44:26.043Z,34.70
2019-01-24T02:46:57.131Z,36.50
2019-01-24T02:49:28.275Z,36.08
2019-01-24T02:51:59.494Z,34.85
2019-01-24T02:54:30.718Z,36.17
2019-01-24T02:57:02.052Z,36.50
2019-01-24T02:59:33.179Z,35.48
2019-01-24T03:02:04.637Z,37.42
2019-01-24T03:04:35.839Z,37.88
2019-01-24T03:07:07.035Z,35.15
2019-01-24T03:09:38.247Z,35.63
2019-01-24T03:12:10.527Z,34.70
2019-01-24T03:14:41.738Z,37.15
2019-01-24T03:17:12.966Z,37.23
2019-01-24T03:19:44.098Z,36.70
2019-01-24T03:22:15.200Z,34.35
2019-01-24T03:24:46.373Z,35.40
2019-01-24T03:27:17.482Z,38.73
2019-01-24T03:29:48.563Z,35.65
2019-01-24T03:32:19.664Z,35.48
2019-01-24T03:34:50.791Z,35.05
2019-01-24T03:37:21.857Z,36.55
2019-01-24T03:39:53.039Z,35.00
2019-01-24T03:42:24.115Z,33.60
2019-01-24T03:44:55.290Z,36.03
2019-01-24T03:47:26.428Z,33.45
2019-01-24T03:49:57.538Z,34.10
2019-01-24T03:52:28.605Z,33.25
2019-01-24T03:54:59.690Z,33.02
2019-01-24T03:57:31.144Z,33.13
2019-01-24T04:00:02.219Z,31.95
2019-01-24T04:02:33.371Z,32.55
2019-01-24T04:05:11.817Z,35.28
2019-01-24T04:07:38.675Z,34.48
2019-01-24T04:10:12.631Z,33.35
2019-01-24T04:12:43.738Z,35.15
2019-01-24T04:15:17.366Z,32.60
2019-01-24T04:17:48.535Z,34.25
2019-01-24T04:20:20.513Z,31.97
2019-01-24T04:22:51.632Z,32.05
2019-01-24T04:25:22.746Z,30.37
2019-01-24T04:27:53.891Z,33.23
2019-01-24T04:30:25.207Z,31.57
2019-01-24T04:32:56.384Z,31.35
2019-01-24T04:35:27.469Z,31.97
2019-01-24T04:37:58.688Z,32.98
2019-01-24T04:40:29.837Z,31.80
2019-01-24T04:43:00.927Z,33.25
2019-01-24T04:45:32.055Z,31.70
2019-01-24T04:48:03.143Z,32.10
2019-01-24T04:50:34.248Z,32.95
2019-01-24T04:53:05.426Z,34.25
2019-01-24T04:55:36.522Z,31.55
2019-01-24T04:58:07.857Z,31.73
2019-01-24T05:00:38.924Z,34.90
2019-01-24T05:03:10.135Z,33.80
2019-01-24T05:05:41.238Z,30.82
2019-01-24T05:08:12.327Z,34.05
2019-01-24T05:10:43.388Z,34.53
2019-01-24T05:13:14.571Z,34.13
2019-01-24T05:15:45.654Z,32.93
2019-01-24T05:18:16.734Z,33.45
2019-01-24T05:20:47.839Z,33.90
2019-01-24T05:23:18.971Z,34.23
2019-01-24T05:25:50.079Z,33.75
2019-01-24T05:28:21.215Z,32.30
2019-01-24T05:30:52.405Z,34.18
2019-01-24T05:33:23.564Z,32.53
2019-01-24T05:35:54.711Z,30.30
2019-01-24T05:38:25.809Z,32.20
2019-01-24T05:40:56.933Z,29.25
2019-01-24T05:43:28.027Z,33.15
2019-01-24T05:45:59.151Z,30.43
2019-01-24T05:48:31.321Z,31.27
2019-01-24T05:51:02.447Z,31.00
2019-01-24T05:53:33.572Z,30.82
2019-01-24T05:56:05.003Z,29.18
2019-01-24T05:58:36.461Z,33.88
2019-01-24T06:01:09.785Z,30.55
2019-01-24T06:03:41.070Z,28.65
2019-01-24T06:06:12.484Z,29.90
2019-01-24T06:08:43.667Z,27.35
2019-01-24T06:11:15.813Z,30.12
2019-01-24T06:13:47.049Z,30.32
2019-01-24T06:16:18.148Z,29.95
2019-01-24T06:18:49.241Z,28.92
2019-01-24T06:21:20.343Z,29.98
2019-01-24T06:23:51.484Z,31.15
2019-01-24T06:26:22.741Z,29.00
2019-01-24T06:28:53.953Z,27.02
2019-01-24T06:31:25.189Z,29.05
2019-01-24T06:33:56.267Z,28.50
2019-01-24T06:36:27.515Z,26.75
2019-01-24T06:38:58.636Z,28.35
2019-01-24T06:41:29.747Z,27.02
2019-01-24T06:44:01.075Z,27.67
2019-01-24T06:46:32.591Z,27.62
2019-01-24T06:49:03.984Z,27.73
2019-01-24T06:51:35.674Z,28.02
2019-01-24T06:54:06.739Z,26.50
2019-01-24T06:56:37.838Z,29.10
2019-01-24T06:59:09.368Z,27.17
2019-01-24T07:01:40.453Z,25.88
2019-01-24T07:04:11.563Z,25.62
2019-01-24T07:06:42.767Z,26.82
2019-01-24T07:09:14.109Z,26.05
2019-01-24T07:11:45.319Z,24.18
2019-01-24T07:14:16.351Z,25.50
2019-01-24T07:16:47.423Z,23.15
2019-01-24T07:19:18.579Z,26.20
2019-01-24T07:21:49.899Z,26.57
2019-01-24T07:24:21.508Z,24.40
2019-01-24T07:26:52.907Z,24.50
2019-01-24T07:29:24.001Z,25.10
2019-01-24T07:31:55.421Z,23.40
2019-01-24T07:34:26.577Z,26.23
2019-01-24T07:36:57.747Z,26.30
2019-01-24T07:39:28.861Z,26.27
2019-01-24T07:42:00.253Z,23.85
2019-01-24T07:44:31.364Z,25.70
2019-01-24T07:47:02.595Z,25.43
2019-01-24T07:49:33.771Z,25.92
2019-01-24T07:52:05.610Z,25.43
2019-01-24T07:54:36.691Z,25.15
2019-01-24T07:57:07.897Z,22.50
2019-01-24T07:59:39.275Z,24.82
2019-01-24T08:02:09.732Z,23.47
2019-01-24T08:04:40.848Z,22.87
2019-01-24T08:07:12.037Z,22.50
2019-01-24T08:09:43.679Z,23.38
2019-01-24T08:12:15.008Z,23.12
2019-01-24T08:14:46.103Z,20.90
2019-01-24T08:17:17.543Z,19.82
2019-01-24T08:19:48.969Z,20.72
2019-01-24T08:22:31.379Z,19.92
2019-01-24T08:25:14.122Z,19.87
2019-01-24T08:27:45.466Z,18.77
2019-01-24T08:30:25.135Z,19.55
2019-01-24T08:32:56.283Z,19.98
2019-01-24T08:35:27.368Z,18.48
2019-01-24T08:37:59.146Z,18.20
2019-01-24T08:40:30.294Z,20.55
2019-01-24T08:43:01.469Z,18.35
2019-01-24T08:45:32.615Z,19.02
2019-01-24T08:48:03.825Z,18.12
2019-01-24T08:50:35.245Z,18.07
2019-01-24T08:53:06.447Z,20.50
2019-01-24T08:55:42.721Z,19.03
2019-01-24T08:58:14.030Z,18.12
2019-01-24T09:00:45.466Z,19.80
2019-01-24T09:03:17.409Z,20.52
2019-01-24T09:05:48.977Z,20.27
2019-01-24T09:08:20.115Z,20.30
2019-01-24T09:10:51.668Z,20.88
2019-01-24T09:13:22.853Z,20.32
2019-01-24T09:15:54.135Z,19.48
2019-01-24T09:18:30.015Z,22.77
2019-01-24T09:21:01.357Z,21.25
2019-01-24T09:23:32.455Z,21.15
2019-01-24T09:26:03.592Z,20.77
2019-01-24T09:28:34.741Z,23.10
2019-01-24T09:31:05.941Z,23.27
2019-01-24T09:33:37.447Z,23.47
2019-01-24T09:36:08.639Z,25.65
2019-01-24T09:38:39.751Z,23.87
2019-01-24T09:41:10.951Z,24.82
2019-01-24T09:43:42.081Z,24.40
2019-01-24T09:46:13.667Z,24.07
2019-01-24T09:48:44.722Z,21.68
2019-01-24T09:51:15.927Z,21.90
2019-01-24T09:53:47.083Z,23.05
2019-01-24T09:56:18.179Z,21.52
2019-01-24T09:58:49.271Z,22.20
2019-01-24T10:01:20.693Z,23.30
2019-01-24T10:03:51.995Z,22.73
2019-01-24T10:06:23.091Z,21.50
2019-01-24T10:08:54.175Z,21.80
2019-01-24T10:11:25.567Z,21.87
2019-01-24T10:13:57.017Z,21.40
2019-01-24T10:16:28.126Z,21.00
2019-01-24T10:18:59.284Z,20.45
2019-01-24T10:21:30.652Z,21.40
2019-01-24T10:24:02.051Z,22.13
2019-01-24T10:26:34.447Z,23.57
2019-01-24T10:29:05.843Z,21.97
2019-01-24T10:31:37.051Z,23.60
2019-01-24T10:34:08.362Z,23.18
2019-01-24T10:36:43.151Z,22.27
2019-01-24T10:39:12.484Z,21.33
2019-01-24T10:41:43.670Z,20.85
2019-01-24T10:44:14.897Z,21.12
2019-01-24T10:46:46.033Z,19.30
2019-01-24T10:49:17.143Z,19.12
2019-01-24T10:51:48.328Z,18.75
2019-01-24T10:54:19.816Z,20.25
2019-01-24T10:56:50.903Z,20.25
2019-01-24T10:59:22.033Z,20.50
2019-01-24T11:01:53.404Z,20.17
2019-01-24T11:04:24.482Z,19.80
2019-01-24T11:06:55.781Z,19.52
2019-01-24T11:09:26.915Z,20.07
2019-01-24T11:11:58.167Z,19.75
2019-01-24T11:14:29.603Z,17.70
2019-01-24T11:17:00.696Z,17.50
2019-01-24T11:19:31.851Z,16.97
2019-01-24T11:22:02.971Z,17.05
2019-01-24T11:24:34.055Z,16.50
2019-01-24T11:27:05.383Z,16.17
2019-01-24T11:29:36.931Z,15.80
2019-01-24T11:32:08.526Z,17.10
2019-01-24T11:34:40.007Z,15.43
2019-01-24T11:37:11.145Z,18.17
2019-01-24T11:39:42.309Z,17.48
2019-01-24T11:42:13.445Z,16.10
2019-01-24T11:44:45.035Z,15.48
2019-01-24T11:47:16.161Z,15.08
2019-01-24T11:49:47.511Z,15.25
2019-01-24T11:52:18.680Z,14.30
2019-01-24T11:54:49.905Z,15.80
2019-01-24T11:57:21.085Z,15.10
2019-01-24T11:59:52.171Z,15.35
2019-01-24T12:02:23.641Z,14.73
2019-01-24T12:04:54.735Z,16.15
2019-01-24T12:07:26.028Z,15.60
2019-01-24T12:10:00.540Z,15.32
2019-01-24T12:12:31.802Z,16.55
2019-01-24T12:15:03.165Z,15.70
2019-01-24T12:17:34.627Z,17.90
2019-01-24T12:20:08.299Z,17.35
2019-01-24T12:22:39.712Z,16.32
2019-01-24T12:25:11.409Z,16.90
2019-01-24T12:27:42.871Z,17.32
2019-01-24T12:30:29.368Z,15.25
2019-01-24T12:33:01.127Z,17.30
2019-01-24T12:35:32.226Z,15.35
2019-01-24T12:38:03.330Z,17.02
2019-01-24T12:40:34.419Z,18.15
2019-01-24T12:43:05.940Z,17.52
2019-01-24T12:45:38.100Z,18.10
2019-01-24T12:48:09.525Z,18.30
2019-01-24T12:50:40.600Z,19.77
2019-01-24T12:53:11.786Z,18.17
2019-01-24T12:55:42.923Z,18.90
2019-01-24T12:58:14.117Z,19.50
2019-01-24T13:00:45.617Z,17.52
2019-01-24T13:03:16.905Z,17.70
2019-01-24T13:05:48.401Z,19.02
2019-01-24T13:08:19.663Z,18.77
2019-01-24T13:10:50.797Z,18.37
2019-01-24T13:13:21.875Z,19.65
2019-01-24T13:15:53.100Z,17.97
2019-01-24T13:18:24.243Z,20.00
2019-01-24T13:20:55.387Z,18.50
2019-01-24T13:23:26.553Z,19.35
2019-01-24T13:25:57.689Z,19.20
2019-01-24T13:28:28.889Z,19.30
2019-01-24T13:31:00.523Z,18.55
2019-01-24T13:33:31.766Z,17.60
2019-01-24T13:36:03.407Z,17.10
2019-01-24T13:38:34.811Z,18.48
2019-01-24T13:41:06.075Z,20.05
2019-01-24T13:43:37.297Z,18.40
2019-01-24T13:46:08.671Z,18.07
2019-01-24T13:48:39.848Z,19.17
2019-01-24T13:51:11.106Z,20.40
2019-01-24T13:53:42.299Z,18.62
2019-01-24T13:56:13.571Z,18.90
2019-01-24T13:58:44.780Z,18.35
2019-01-24T14:01:15.881Z,18.17
2019-01-24T14:03:52.260Z,18.73
2019-01-24T14:06:23.657Z,19.17
2019-01-24T14:08:55.077Z,18.75
2019-01-24T14:11:26.383Z,18.87
2019-01-24T14:13:57.684Z,17.25
2019-01-24T14:16:28.937Z,17.48
2019-01-24T14:19:00.121Z,18.45
2019-01-24T14:21:31.413Z,18.85
2019-01-24T14:24:02.613Z,19.00
2019-01-24T14:26:34.087Z,17.62
2019-01-24T14:29:05.305Z,17.47
2019-01-24T14:31:36.601Z,19.00
2019-01-24T14:34:07.993Z,18.37
2019-01-24T14:36:39.534Z,18.42
2019-01-24T14:39:11.403Z,18.10
2019-01-24T14:41:42.959Z,17.57
2019-01-24T14:44:14.311Z,17.35
2019-01-24T14:46:46.139Z,16.12
2019-01-24T14:49:36.266Z,17.30
2019-01-24T14:52:07.984Z,15.32
2019-01-24T14:54:39.432Z,16.57
2019-01-24T14:57:10.785Z,17.40
2019-01-24T14:59:41.955Z,15.58
2019-01-24T15:02:13.089Z,16.60
2019-01-24T15:04:44.432Z,16.87
2019-01-24T15:07:15.733Z,15.03
2019-01-24T15:09:47.069Z,16.45
2019-01-24T15:12:18.173Z,15.18
2019-01-24T15:14:49.413Z,16.32
2019-01-24T15:17:41.037Z,17.67
2019-01-24T15:20:12.663Z,15.93
2019-01-24T15:22:44.114Z,18.20
2019-01-24T15:25:15.549Z,17.53
2019-01-24T15:27:47.047Z,16.33
2019-01-24T15:30:21.128Z,15.85
2019-01-24T15:32:53.490Z,17.42
2019-01-24T15:35:24.699Z,14.70
2019-01-24T15:37:55.959Z,16.00
2019-01-24T15:40:29.473Z,16.05
2019-01-24T15:43:00.932Z,16.07
2019-01-24T15:45:32.237Z,16.35
2019-01-24T15:48:03.461Z,17.00
2019-01-24T15:50:34.684Z,16.93
2019-01-24T15:53:06.191Z,17.10
2019-01-24T15:55:37.423Z,17.00
2019-01-24T15:58:08.512Z,16.42
2019-01-24T16:00:39.730Z,18.75
2019-01-24T16:03:11.816Z,18.17
2019-01-24T16:05:43.366Z,17.00
2019-01-24T16:08:14.537Z,17.35
2019-01-24T16:10:45.705Z,19.27
2019-01-24T16:13:16.779Z,19.67
2019-01-24T16:15:47.995Z,18.02
2019-01-24T16:18:19.085Z,19.82
2019-01-24T16:20:50.311Z,18.48
2019-01-24T16:23:21.454Z,18.85
2019-01-24T16:25:52.676Z,17.42
2019-01-24T16:28:24.788Z,18.60
2019-01-24T16:30:56.714Z,18.48
2019-01-24T16:33:28.217Z,18.52
2019-01-24T16:35:59.442Z,17.20
2019-01-24T16:38:30.626Z,18.70
2019-01-24T16:41:01.818Z,17.62
2019-01-24T16:43:32.923Z,18.23
2019-01-24T16:46:04.249Z,17.80
2019-01-24T16:48:35.417Z,18.25
2019-01-24T16:51:06.583Z,18.65
2019-01-24T16:53:37.766Z,17.82
2019-01-24T16:56:08.950Z,17.45
2019-01-24T16:58:40.159Z,17.25
2019-01-24T17:01:17.817Z,16.37
2019-01-24T17:03:49.055Z,18.17
2019-01-24T17:06:20.557Z,15.90
2019-01-24T17:08:52.819Z,15.55
2019-01-24T17:11:24.154Z,16.70
2019-01-24T17:13:55.319Z,15.20
2019-01-24T17:16:26.462Z,17.45
2019-01-24T17:18:57.645Z,17.40
2019-01-24T17:21:28.833Z,14.85
2019-01-24T17:24:00.125Z,17.15
2019-01-24T17:26:31.308Z,15.25
2019-01-24T17:29:02.534Z,16.15
2019-01-24T17:31:35.051Z,15.78
2019-01-24T17:34:06.336Z,16.82
2019-01-24T17:36:42.617Z,16.30
2019-01-24T17:39:14.177Z,16.82
2019-01-24T17:41:45.508Z,17.90
2019-01-24T17:44:16.584Z,17.70
2019-01-24T17:46:47.751Z,19.48
2019-01-24T17:49:19.241Z,18.62
2019-01-24T17:51:50.403Z,18.12
2019-01-24T17:54:21.630Z,18.90
2019-01-24T17:56:52.897Z,18.92
2019-01-24T17:59:24.159Z,18.52
2019-01-24T18:01:55.389Z,18.45
2019-01-24T18:04:26.667Z,19.20
2019-01-24T18:06:58.012Z,16.00
2019-01-24T18:09:29.272Z,17.73
2019-01-24T18:12:00.500Z,17.70
2019-01-24T18:14:31.763Z,18.17
2019-01-24T18:17:03.015Z,20.68
2019-01-24T18:19:34.106Z,19.00
2019-01-24T18:22:24.287Z,19.45
2019-01-24T18:24:57.092Z,19.73
2019-01-24T18:27:28.502Z,19.75
2019-01-24T18:29:59.661Z,20.02
2019-01-24T18:32:43.040Z,21.37
2019-01-24T18:35:14.201Z,19.77
2019-01-24T18:37:45.340Z,19.17
2019-01-24T18:40:18.602Z,19.62
2019-01-24T18:42:51.309Z,20.25
2019-01-24T18:45:28.761Z,18.75
2019-01-24T18:47:59.937Z,19.05
2019-01-24T18:50:31.796Z,19.50
2019-01-24T18:53:02.945Z,18.67
2019-01-24T18:55:34.065Z,17.42
2019-01-24T18:58:05.713Z,19.12
2019-01-24T19:00:43.109Z,18.17
2019-01-24T19:03:15.385Z,20.48
2019-01-24T19:05:46.831Z,17.27
2019-01-24T19:08:18.387Z,17.95
2019-01-24T19:10:49.545Z,17.67
2019-01-24T19:13:20.983Z,16.37
2019-01-24T19:15:52.249Z,21.65
2019-01-24T19:18:23.499Z,13.18
2019-01-24T19:20:54.771Z,13.35
2019-01-24T19:23:25.914Z,14.35
2019-01-24T19:25:57.140Z,13.30
2019-01-24T19:28:28.266Z,13.72
2019-01-24T19:30:59.403Z,13.32
2019-01-24T19:33:30.723Z,13.68
2019-01-24T19:36:01.903Z,12.03
2019-01-24T19:38:33.192Z,12.68
2019-01-24T19:41:04.304Z,11.60
2019-01-24T19:43:35.455Z,12.53
2019-01-24T19:46:06.652Z,12.28
2019-01-24T19:48:37.789Z,12.65
2019-01-24T19:51:08.911Z,11.70
2019-01-24T19:53:40.283Z,11.28
2019-01-24T19:56:11.519Z,12.70
2019-01-24T19:58:42.704Z,11.95
2019-01-24T20:01:13.884Z,12.30
2019-01-24T20:03:45.129Z,13.10
2019-01-24T20:06:16.285Z,12.58
2019-01-24T20:08:47.679Z,11.95
2019-01-24T20:11:18.912Z,13.40
2019-01-24T20:13:49.995Z,12.98
2019-01-24T20:16:21.155Z,12.70
2019-01-24T20:18:52.538Z,13.35
2019-01-24T20:21:24.587Z,13.18
2019-01-24T20:23:55.781Z,13.25
2019-01-24T20:26:26.986Z,13.88
2019-01-24T20:28:58.090Z,13.25
2019-01-24T20:31:29.275Z,12.15
2019-01-24T20:34:01.592Z,13.80
2019-01-24T20:36:32.743Z,13.15
2019-01-24T20:39:07.497Z,12.37
2019-01-24T20:41:38.985Z,13.78
2019-01-24T20:44:10.136Z,13.68
2019-01-24T20:46:41.251Z,12.98
2019-01-24T20:49:12.480Z,13.78
2019-01-24T20:51:43.681Z,14.38
2019-01-24T20:54:15.183Z,15.20
2019-01-24T20:56:46.313Z,14.45
2019-01-24T20:59:17.471Z,14.45
2019-01-24T21:01:48.685Z,15.03
2019-01-24T21:04:19.875Z,14.05
2019-01-24T21:06:51.107Z,15.10
2019-01-24T21:09:22.443Z,14.30
2019-01-24T21:11:53.561Z,13.70
2019-01-24T21:14:24.729Z,14.07
2019-01-24T21:16:55.851Z,14.03
2019-01-24T21:19:26.942Z,14.33
2019-01-24T21:21:58.115Z,13.90
2019-01-24T21:24:29.193Z,12.93
2019-01-24T21:27:00.443Z,14.55
2019-01-24T21:29:31.499Z,14.58
2019-01-24T21:32:02.587Z,14.58
2019-01-24T21:34:33.679Z,14.93
2019-01-24T21:37:04.863Z,14.90
2019-01-24T21:39:36.075Z,13.93
2019-01-24T21:42:07.219Z,14.75
2019-01-24T21:44:38.419Z,13.38
2019-01-24T21:47:09.672Z,13.45
2019-01-24T21:49:40.764Z,13.53
2019-01-24T21:52:11.839Z,13.75
2019-01-24T21:54:43.073Z,13.58
2019-01-24T21:57:14.272Z,15.20
2019-01-24T21:59:45.411Z,14.25
2019-01-24T22:02:16.489Z,13.90
2019-01-24T22:04:47.595Z,13.78
2019-01-24T22:07:18.761Z,15.15
2019-01-24T22:09:49.928Z,14.60
2019-01-24T22:12:21.072Z,15.55
2019-01-24T22:14:52.199Z,15.00
2019-01-24T22:17:23.271Z,16.93
2019-01-24T22:19:54.429Z,15.15
2019-01-24T22:22:25.479Z,15.43
2019-01-24T22:24:56.608Z,16.45
2019-01-24T22:27:27.775Z,16.15
2019-01-24T22:29:58.863Z,15.08
2019-01-24T22:32:29.952Z,14.47
2019-01-24T22:35:01.063Z,13.88
2019-01-24T22:37:32.189Z,15.95
2019-01-24T22:40:03.389Z,16.20
2019-01-24T22:42:34.520Z,15.72
2019-01-24T22:45:08.580Z,16.37
2019-01-24T22:47:39.739Z,15.98
2019-01-24T22:50:12.935Z,14.70
2019-01-24T22:52:44.056Z,15.65
2019-01-24T22:55:15.136Z,16.37
2019-01-24T22:57:46.287Z,16.37
2019-01-24T23:00:52.425Z,15.43
2019-01-24T23:03:31.019Z,16.10
2019-01-24T23:06:02.155Z,14.95
2019-01-24T23:08:33.277Z,15.93
2019-01-24T23:11:05.103Z,15.00
2019-01-24T23:13:36.211Z,16.42
2019-01-24T23:16:07.349Z,16.35
2019-01-24T23:18:38.459Z,16.30
2019-01-24T23:21:09.667Z,16.60
2019-01-24T23:23:40.765Z,15.88
2019-01-24T23:26:11.907Z,16.65
2019-01-24T23:28:43.081Z,15.93
2019-01-24T23:31:14.139Z,16.05
2019-01-24T23:33:45.222Z,16.12
2019-01-24T23:36:16.340Z,15.48
2019-01-24T23:38:47.415Z,16.48
2019-01-24T23:41:18.524Z,16.65
2019-01-24T23:43:49.583Z,15.25
2019-01-24T23:46:20.749Z,15.98
2019-01-24T23:48:51.811Z,17.50
2019-01-24T23:51:22.922Z,17.05
2019-01-24T23:53:54.190Z,16.82
2019-01-24T23:56:25.351Z,18.60
2019-01-24T23:58:57.483Z,16.87
